sensor_id;sensor_type;location;lat;lon;timestamp;P1;durP1;ratioP1;P2;durP2;ratioP2
19213;SDS011;9741;51.020;5.304;2023-04-08T00:01:01;0.53;;;0.53;;
19213;SDS011;9741;51.020;5.304;2023-04-08T00:03:28;0.83;;;0.83;;
19213;SDS011;9741;51.020;5.304;2023-04-08T00:05:56;2.00;;;0.97;;
19213;SDS011;9741;51.020;5.304;2023-04-08T00:08:25;2.97;;;1.67;;
19213;SDS011;9741;51.020;5.304;2023-04-08T00:10:52;4.20;;;0.53;;
19213;SDS011;9741;51.020;5.304;2023-04-08T00:13:20;0.40;;;0.40;;
19213;SDS011;9741;51.020;5.304;2023-04-08T00:15:48;0.97;;;0.97;;
19213;SDS011;9741;51.020;5.304;2023-04-08T00:18:15;0.77;;;0.57;;
19213;SDS011;9741;51.020;5.304;2023-04-08T00:20:43;8.60;;;1.00;;
19213;SDS011;9741;51.020;5.304;2023-04-08T00:23:10;2.33;;;1.10;;
19213;SDS011;9741;51.020;5.304;2023-04-08T00:25:37;1.80;;;1.10;;
19213;SDS011;9741;51.020;5.304;2023-04-08T00:28:04;2.10;;;1.17;;
19213;SDS011;9741;51.020;5.304;2023-04-08T00:30:33;1.63;;;1.53;;
19213;SDS011;9741;51.020;5.304;2023-04-08T00:33:00;2.50;;;0.93;;
19213;SDS011;9741;51.020;5.304;2023-04-08T00:35:28;2.93;;;1.40;;
19213;SDS011;9741;51.020;5.304;2023-04-08T00:37:55;3.53;;;1.23;;
19213;SDS011;9741;51.020;5.304;2023-04-08T00:40:22;1.07;;;0.97;;
19213;SDS011;9741;51.020;5.304;2023-04-08T00:42:49;1.87;;;0.70;;
19213;SDS011;9741;51.020;5.304;2023-04-08T00:45:16;0.83;;;0.83;;
19213;SDS011;9741;51.020;5.304;2023-04-08T00:47:45;0.83;;;0.83;;
19213;SDS011;9741;51.020;5.304;2023-04-08T00:50:16;1.83;;;1.37;;
19213;SDS011;9741;51.020;5.304;2023-04-08T00:52:44;0.80;;;0.80;;
19213;SDS011;9741;51.020;5.304;2023-04-08T00:55:11;0.60;;;0.60;;
19213;SDS011;9741;51.020;5.304;2023-04-08T00:57:38;1.60;;;1.00;;
19213;SDS011;9741;51.020;5.304;2023-04-08T01:00:06;1.97;;;1.60;;
19213;SDS011;9741;51.020;5.304;2023-04-08T01:02:35;8.60;;;0.97;;
19213;SDS011;9741;51.020;5.304;2023-04-08T01:05:12;2.93;;;1.23;;
19213;SDS011;9741;51.020;5.304;2023-04-08T01:07:43;1.13;;;0.80;;
19213;SDS011;9741;51.020;5.304;2023-04-08T01:10:14;0.67;;;0.67;;
19213;SDS011;9741;51.020;5.304;2023-04-08T01:12:43;0.60;;;0.60;;
19213;SDS011;9741;51.020;5.304;2023-04-08T01:15:15;2.47;;;1.63;;
19213;SDS011;9741;51.020;5.304;2023-04-08T01:17:43;1.43;;;1.33;;
19213;SDS011;9741;51.020;5.304;2023-04-08T01:20:13;0.87;;;0.73;;
19213;SDS011;9741;51.020;5.304;2023-04-08T01:22:47;1.40;;;0.70;;
19213;SDS011;9741;51.020;5.304;2023-04-08T01:25:29;0.73;;;0.73;;
19213;SDS011;9741;51.020;5.304;2023-04-08T01:27:58;1.17;;;1.03;;
19213;SDS011;9741;51.020;5.304;2023-04-08T01:30:27;1.57;;;1.23;;
19213;SDS011;9741;51.020;5.304;2023-04-08T01:32:55;5.30;;;1.33;;
19213;SDS011;9741;51.020;5.304;2023-04-08T01:35:24;1.47;;;1.37;;
19213;SDS011;9741;51.020;5.304;2023-04-08T01:37:52;1.53;;;1.43;;
19213;SDS011;9741;51.020;5.304;2023-04-08T01:40:21;2.20;;;1.70;;
19213;SDS011;9741;51.020;5.304;2023-04-08T01:42:48;0.80;;;0.77;;
19213;SDS011;9741;51.020;5.304;2023-04-08T01:45:20;0.93;;;0.63;;
19213;SDS011;9741;51.020;5.304;2023-04-08T01:47:52;1.23;;;1.13;;
19213;SDS011;9741;51.020;5.304;2023-04-08T01:50:19;0.70;;;0.70;;
19213;SDS011;9741;51.020;5.304;2023-04-08T01:52:50;1.30;;;1.10;;
19213;SDS011;9741;51.020;5.304;2023-04-08T01:55:19;3.87;;;1.60;;
19213;SDS011;9741;51.020;5.304;2023-04-08T01:57:48;0.90;;;0.90;;
19213;SDS011;9741;51.020;5.304;2023-04-08T02:00:18;1.23;;;1.07;;
19213;SDS011;9741;51.020;5.304;2023-04-08T02:02:50;2.07;;;1.87;;
19213;SDS011;9741;51.020;5.304;2023-04-08T02:05:18;6.47;;;1.57;;
19213;SDS011;9741;51.020;5.304;2023-04-08T02:07:45;1.60;;;1.50;;
19213;SDS011;9741;51.020;5.304;2023-04-08T02:10:13;1.00;;;1.00;;
19213;SDS011;9741;51.020;5.304;2023-04-08T02:12:40;1.23;;;1.13;;
19213;SDS011;9741;51.020;5.304;2023-04-08T02:15:09;0.93;;;0.67;;
19213;SDS011;9741;51.020;5.304;2023-04-08T02:17:42;1.43;;;1.33;;
19213;SDS011;9741;51.020;5.304;2023-04-08T02:20:13;3.87;;;1.40;;
19213;SDS011;9741;51.020;5.304;2023-04-08T02:22:46;1.27;;;1.00;;
19213;SDS011;9741;51.020;5.304;2023-04-08T02:25:16;1.40;;;1.10;;
19213;SDS011;9741;51.020;5.304;2023-04-08T02:27:46;1.07;;;0.90;;
19213;SDS011;9741;51.020;5.304;2023-04-08T02:30:13;1.37;;;1.27;;
19213;SDS011;9741;51.020;5.304;2023-04-08T02:32:44;2.53;;;1.10;;
19213;SDS011;9741;51.020;5.304;2023-04-08T02:35:12;1.57;;;0.87;;
19213;SDS011;9741;51.020;5.304;2023-04-08T02:37:41;1.30;;;1.20;;
19213;SDS011;9741;51.020;5.304;2023-04-08T02:40:24;0.90;;;0.90;;
19213;SDS011;9741;51.020;5.304;2023-04-08T02:42:52;0.87;;;0.80;;
19213;SDS011;9741;51.020;5.304;2023-04-08T02:45:19;1.10;;;0.90;;
19213;SDS011;9741;51.020;5.304;2023-04-08T02:47:48;1.00;;;0.90;;
19213;SDS011;9741;51.020;5.304;2023-04-08T02:50:15;6.80;;;0.97;;
19213;SDS011;9741;51.020;5.304;2023-04-08T02:52:42;2.10;;;1.27;;
19213;SDS011;9741;51.020;5.304;2023-04-08T02:55:09;2.03;;;1.47;;
19213;SDS011;9741;51.020;5.304;2023-04-08T02:57:38;1.53;;;1.43;;
19213;SDS011;9741;51.020;5.304;2023-04-08T03:00:06;3.10;;;2.07;;
19213;SDS011;9741;51.020;5.304;2023-04-08T03:02:34;1.70;;;1.13;;
19213;SDS011;9741;51.020;5.304;2023-04-08T03:05:03;2.63;;;2.17;;
19213;SDS011;9741;51.020;5.304;2023-04-08T03:07:31;2.00;;;1.50;;
19213;SDS011;9741;51.020;5.304;2023-04-08T03:09:58;2.40;;;1.47;;
19213;SDS011;9741;51.020;5.304;2023-04-08T03:12:25;1.60;;;1.33;;
19213;SDS011;9741;51.020;5.304;2023-04-08T03:14:52;1.37;;;1.27;;
19213;SDS011;9741;51.020;5.304;2023-04-08T03:17:20;3.80;;;1.07;;
19213;SDS011;9741;51.020;5.304;2023-04-08T03:19:47;1.07;;;1.03;;
19213;SDS011;9741;51.020;5.304;2023-04-08T03:22:16;2.13;;;1.73;;
19213;SDS011;9741;51.020;5.304;2023-04-08T03:24:44;1.50;;;1.27;;
19213;SDS011;9741;51.020;5.304;2023-04-08T03:27:11;3.00;;;1.37;;
19213;SDS011;9741;51.020;5.304;2023-04-08T03:29:38;1.67;;;1.57;;
19213;SDS011;9741;51.020;5.304;2023-04-08T03:32:05;1.63;;;1.53;;
19213;SDS011;9741;51.020;5.304;2023-04-08T03:34:32;1.70;;;1.53;;
19213;SDS011;9741;51.020;5.304;2023-04-08T03:37:00;2.13;;;1.30;;
19213;SDS011;9741;51.020;5.304;2023-04-08T03:39:28;1.00;;;1.00;;
19213;SDS011;9741;51.020;5.304;2023-04-08T03:41:55;1.97;;;1.63;;
19213;SDS011;9741;51.020;5.304;2023-04-08T03:44:25;3.67;;;1.17;;
19213;SDS011;9741;51.020;5.304;2023-04-08T03:46:52;1.13;;;0.73;;
19213;SDS011;9741;51.020;5.304;2023-04-08T03:49:19;4.07;;;1.70;;
19213;SDS011;9741;51.020;5.304;2023-04-08T03:51:46;1.43;;;1.30;;
19213;SDS011;9741;51.020;5.304;2023-04-08T03:54:13;1.47;;;1.30;;
19213;SDS011;9741;51.020;5.304;2023-04-08T03:56:42;0.87;;;0.80;;
19213;SDS011;9741;51.020;5.304;2023-04-08T03:59:09;1.70;;;1.23;;
19213;SDS011;9741;51.020;5.304;2023-04-08T04:01:36;5.13;;;1.03;;
19213;SDS011;9741;51.020;5.304;2023-04-08T04:04:03;1.50;;;1.17;;
19213;SDS011;9741;51.020;5.304;2023-04-08T04:06:30;4.03;;;1.97;;
19213;SDS011;9741;51.020;5.304;2023-04-08T04:08:57;1.23;;;1.13;;
19213;SDS011;9741;51.020;5.304;2023-04-08T04:11:24;1.07;;;1.03;;
19213;SDS011;9741;51.020;5.304;2023-04-08T04:13:53;1.13;;;1.00;;
19213;SDS011;9741;51.020;5.304;2023-04-08T04:16:20;1.70;;;1.57;;
19213;SDS011;9741;51.020;5.304;2023-04-08T04:18:47;2.47;;;1.50;;
19213;SDS011;9741;51.020;5.304;2023-04-08T04:21:14;5.63;;;1.90;;
19213;SDS011;9741;51.020;5.304;2023-04-08T04:23:41;1.93;;;1.80;;
19213;SDS011;9741;51.020;5.304;2023-04-08T04:26:08;3.27;;;2.20;;
19213;SDS011;9741;51.020;5.304;2023-04-08T04:28:36;1.90;;;1.43;;
19213;SDS011;9741;51.020;5.304;2023-04-08T04:31:05;1.40;;;1.30;;
19213;SDS011;9741;51.020;5.304;2023-04-08T04:33:32;3.20;;;2.47;;
19213;SDS011;9741;51.020;5.304;2023-04-08T04:35:59;22.77;;;2.50;;
19213;SDS011;9741;51.020;5.304;2023-04-08T04:38:26;1.43;;;1.33;;
19213;SDS011;9741;51.020;5.304;2023-04-08T04:40:53;1.13;;;1.00;;
19213;SDS011;9741;51.020;5.304;2023-04-08T04:43:21;1.63;;;1.53;;
19213;SDS011;9741;51.020;5.304;2023-04-08T04:45:49;3.77;;;2.57;;
19213;SDS011;9741;51.020;5.304;2023-04-08T04:48:20;5.13;;;2.30;;
19213;SDS011;9741;51.020;5.304;2023-04-08T04:50:53;6.63;;;2.83;;
19213;SDS011;9741;51.020;5.304;2023-04-08T04:53:20;5.93;;;2.37;;
19213;SDS011;9741;51.020;5.304;2023-04-08T04:55:47;6.93;;;1.93;;
19213;SDS011;9741;51.020;5.304;2023-04-08T04:58:15;8.00;;;3.03;;
19213;SDS011;9741;51.020;5.304;2023-04-08T05:00:42;4.43;;;3.33;;
19213;SDS011;9741;51.020;5.304;2023-04-08T05:03:10;11.33;;;4.17;;
19213;SDS011;9741;51.020;5.304;2023-04-08T05:05:38;5.53;;;2.60;;
19213;SDS011;9741;51.020;5.304;2023-04-08T05:08:06;6.10;;;3.13;;
19213;SDS011;9741;51.020;5.304;2023-04-08T05:10:33;4.37;;;2.63;;
19213;SDS011;9741;51.020;5.304;2023-04-08T05:13:00;3.97;;;2.93;;
19213;SDS011;9741;51.020;5.304;2023-04-08T05:15:27;7.53;;;3.33;;
19213;SDS011;9741;51.020;5.304;2023-04-08T05:17:54;9.37;;;3.07;;
19213;SDS011;9741;51.020;5.304;2023-04-08T05:20:21;6.90;;;2.40;;
19213;SDS011;9741;51.020;5.304;2023-04-08T05:22:49;3.57;;;2.67;;
19213;SDS011;9741;51.020;5.304;2023-04-08T05:25:17;3.60;;;2.57;;
19213;SDS011;9741;51.020;5.304;2023-04-08T05:27:44;3.03;;;2.60;;
19213;SDS011;9741;51.020;5.304;2023-04-08T05:30:12;6.77;;;2.00;;
19213;SDS011;9741;51.020;5.304;2023-04-08T05:32:39;2.63;;;1.93;;
19213;SDS011;9741;51.020;5.304;2023-04-08T05:35:06;1.40;;;1.30;;
19213;SDS011;9741;51.020;5.304;2023-04-08T05:37:34;4.13;;;2.63;;
19213;SDS011;9741;51.020;5.304;2023-04-08T05:40:03;1.63;;;1.53;;
19213;SDS011;9741;51.020;5.304;2023-04-08T05:42:31;2.60;;;1.60;;
19213;SDS011;9741;51.020;5.304;2023-04-08T05:45:00;1.80;;;1.23;;
19213;SDS011;9741;51.020;5.304;2023-04-08T05:47:27;2.73;;;2.00;;
19213;SDS011;9741;51.020;5.304;2023-04-08T05:49:54;1.90;;;1.10;;
19213;SDS011;9741;51.020;5.304;2023-04-08T05:52:21;1.93;;;1.37;;
19213;SDS011;9741;51.020;5.304;2023-04-08T05:54:48;3.00;;;1.43;;
19213;SDS011;9741;51.020;5.304;2023-04-08T05:57:17;1.47;;;1.30;;
19213;SDS011;9741;51.020;5.304;2023-04-08T05:59:44;1.83;;;1.37;;
19213;SDS011;9741;51.020;5.304;2023-04-08T06:02:11;4.33;;;1.87;;
19213;SDS011;9741;51.020;5.304;2023-04-08T06:04:38;2.97;;;1.63;;
19213;SDS011;9741;51.020;5.304;2023-04-08T06:07:05;1.67;;;1.13;;
19213;SDS011;9741;51.020;5.304;2023-04-08T06:09:33;3.50;;;2.53;;
19213;SDS011;9741;51.020;5.304;2023-04-08T06:12:02;3.97;;;3.03;;
19213;SDS011;9741;51.020;5.304;2023-04-08T06:14:31;10.63;;;3.03;;
19213;SDS011;9741;51.020;5.304;2023-04-08T06:16:58;3.93;;;2.80;;
19213;SDS011;9741;51.020;5.304;2023-04-08T06:19:25;5.37;;;3.30;;
19213;SDS011;9741;51.020;5.304;2023-04-08T06:21:52;9.80;;;3.50;;
19213;SDS011;9741;51.020;5.304;2023-04-08T06:24:23;5.23;;;3.43;;
19213;SDS011;9741;51.020;5.304;2023-04-08T06:26:51;5.97;;;2.67;;
19213;SDS011;9741;51.020;5.304;2023-04-08T06:29:18;5.20;;;3.63;;
19213;SDS011;9741;51.020;5.304;2023-04-08T06:31:47;8.63;;;4.03;;
19213;SDS011;9741;51.020;5.304;2023-04-08T06:34:14;6.40;;;3.97;;
19213;SDS011;9741;51.020;5.304;2023-04-08T06:36:42;7.03;;;4.63;;
19213;SDS011;9741;51.020;5.304;2023-04-08T06:39:09;7.50;;;4.00;;
19213;SDS011;9741;51.020;5.304;2023-04-08T06:41:36;7.37;;;4.47;;
19213;SDS011;9741;51.020;5.304;2023-04-08T06:44:03;9.53;;;5.37;;
19213;SDS011;9741;51.020;5.304;2023-04-08T06:46:30;9.23;;;5.10;;
19213;SDS011;9741;51.020;5.304;2023-04-08T06:48:58;13.30;;;5.40;;
19213;SDS011;9741;51.020;5.304;2023-04-08T06:51:25;7.20;;;4.40;;
19213;SDS011;9741;51.020;5.304;2023-04-08T06:53:53;6.73;;;3.93;;
19213;SDS011;9741;51.020;5.304;2023-04-08T06:56:20;5.73;;;3.53;;
19213;SDS011;9741;51.020;5.304;2023-04-08T06:58:47;6.63;;;4.70;;
19213;SDS011;9741;51.020;5.304;2023-04-08T07:01:15;6.60;;;4.20;;
19213;SDS011;9741;51.020;5.304;2023-04-08T07:03:42;6.90;;;3.87;;
19213;SDS011;9741;51.020;5.304;2023-04-08T07:06:10;8.13;;;4.60;;
19213;SDS011;9741;51.020;5.304;2023-04-08T07:08:37;11.70;;;6.27;;
19213;SDS011;9741;51.020;5.304;2023-04-08T07:11:05;6.53;;;3.63;;
19213;SDS011;9741;51.020;5.304;2023-04-08T07:13:32;7.87;;;4.60;;
19213;SDS011;9741;51.020;5.304;2023-04-08T07:15:59;4.40;;;3.63;;
19213;SDS011;9741;51.020;5.304;2023-04-08T07:18:26;14.67;;;4.90;;
19213;SDS011;9741;51.020;5.304;2023-04-08T07:20:53;6.23;;;4.37;;
19213;SDS011;9741;51.020;5.304;2023-04-08T07:23:23;11.37;;;5.20;;
19213;SDS011;9741;51.020;5.304;2023-04-08T07:25:50;7.60;;;4.40;;
19213;SDS011;9741;51.020;5.304;2023-04-08T07:28:18;8.80;;;4.27;;
19213;SDS011;9741;51.020;5.304;2023-04-08T07:30:45;7.97;;;4.03;;
19213;SDS011;9741;51.020;5.304;2023-04-08T07:33:12;6.10;;;4.00;;
19213;SDS011;9741;51.020;5.304;2023-04-08T07:35:40;9.63;;;4.23;;
19213;SDS011;9741;51.020;5.304;2023-04-08T07:38:08;6.33;;;3.63;;
19213;SDS011;9741;51.020;5.304;2023-04-08T07:40:38;10.00;;;4.53;;
19213;SDS011;9741;51.020;5.304;2023-04-08T07:43:06;8.40;;;4.80;;
19213;SDS011;9741;51.020;5.304;2023-04-08T07:45:33;8.50;;;5.33;;
19213;SDS011;9741;51.020;5.304;2023-04-08T07:48:00;11.07;;;5.63;;
19213;SDS011;9741;51.020;5.304;2023-04-08T07:50:27;10.03;;;3.67;;
19213;SDS011;9741;51.020;5.304;2023-04-08T07:52:55;3.87;;;3.10;;
19213;SDS011;9741;51.020;5.304;2023-04-08T07:55:22;7.00;;;3.93;;
19213;SDS011;9741;51.020;5.304;2023-04-08T07:57:51;6.87;;;3.13;;
19213;SDS011;9741;51.020;5.304;2023-04-08T08:00:18;5.67;;;3.67;;
19213;SDS011;9741;51.020;5.304;2023-04-08T08:02:46;4.90;;;3.73;;
19213;SDS011;9741;51.020;5.304;2023-04-08T08:05:13;3.83;;;2.43;;
19213;SDS011;9741;51.020;5.304;2023-04-08T08:07:40;12.10;;;4.63;;
19213;SDS011;9741;51.020;5.304;2023-04-08T08:10:08;5.93;;;4.07;;
19213;SDS011;9741;51.020;5.304;2023-04-08T08:12:35;5.90;;;3.10;;
19213;SDS011;9741;51.020;5.304;2023-04-08T08:15:06;9.13;;;4.35;;
19213;SDS011;9741;51.020;5.304;2023-04-08T08:17:34;6.55;;;3.33;;
19213;SDS011;9741;51.020;5.304;2023-04-08T08:20:02;7.07;;;3.58;;
19213;SDS011;9741;51.020;5.304;2023-04-08T08:22:29;4.90;;;3.33;;
19213;SDS011;9741;51.020;5.304;2023-04-08T08:24:57;6.75;;;4.10;;
19213;SDS011;9741;51.020;5.304;2023-04-08T08:27:24;5.78;;;4.05;;
19213;SDS011;9741;51.020;5.304;2023-04-08T08:29:51;5.85;;;3.50;;
19213;SDS011;9741;51.020;5.304;2023-04-08T08:32:20;9.63;;;3.88;;
19213;SDS011;9741;51.020;5.304;2023-04-08T08:34:47;7.72;;;4.15;;
19213;SDS011;9741;51.020;5.304;2023-04-08T08:37:14;3.65;;;2.40;;
19213;SDS011;9741;51.020;5.304;2023-04-08T08:39:42;6.13;;;3.65;;
19213;SDS011;9741;51.020;5.304;2023-04-08T08:42:17;5.75;;;3.08;;
19213;SDS011;9741;51.020;5.304;2023-04-08T08:44:46;6.85;;;3.90;;
19213;SDS011;9741;51.020;5.304;2023-04-08T08:47:14;10.10;;;4.05;;
19213;SDS011;9741;51.020;5.304;2023-04-08T08:49:43;7.60;;;2.80;;
19213;SDS011;9741;51.020;5.304;2023-04-08T08:52:14;8.05;;;3.90;;
19213;SDS011;9741;51.020;5.304;2023-04-08T08:54:42;8.38;;;4.68;;
19213;SDS011;9741;51.020;5.304;2023-04-08T08:57:15;8.68;;;4.45;;
19213;SDS011;9741;51.020;5.304;2023-04-08T08:59:44;8.43;;;4.43;;
19213;SDS011;9741;51.020;5.304;2023-04-08T09:02:25;9.68;;;4.72;;
19213;SDS011;9741;51.020;5.304;2023-04-08T09:04:59;14.77;;;6.13;;
19213;SDS011;9741;51.020;5.304;2023-04-08T09:07:28;10.70;;;5.50;;
19213;SDS011;9741;51.020;5.304;2023-04-08T09:09:57;7.50;;;4.13;;
19213;SDS011;9741;51.020;5.304;2023-04-08T09:12:25;7.30;;;3.42;;
19213;SDS011;9741;51.020;5.304;2023-04-08T09:15:02;9.32;;;3.78;;
19213;SDS011;9741;51.020;5.304;2023-04-08T09:17:30;16.15;;;5.57;;
19213;SDS011;9741;51.020;5.304;2023-04-08T09:20:07;6.63;;;3.80;;
19213;SDS011;9741;51.020;5.304;2023-04-08T09:22:56;11.80;;;4.63;;
19213;SDS011;9741;51.020;5.304;2023-04-08T09:25:24;10.02;;;4.75;;
19213;SDS011;9741;51.020;5.304;2023-04-08T09:27:52;7.25;;;4.35;;
19213;SDS011;9741;51.020;5.304;2023-04-08T09:30:20;11.07;;;4.53;;
19213;SDS011;9741;51.020;5.304;2023-04-08T09:32:49;4.93;;;3.50;;
19213;SDS011;9741;51.020;5.304;2023-04-08T09:35:19;6.28;;;2.63;;
19213;SDS011;9741;51.020;5.304;2023-04-08T09:37:46;5.30;;;4.20;;
19213;SDS011;9741;51.020;5.304;2023-04-08T09:40:14;9.50;;;3.30;;
19213;SDS011;9741;51.020;5.304;2023-04-08T09:42:43;5.10;;;3.63;;
19213;SDS011;9741;51.020;5.304;2023-04-08T09:45:12;8.57;;;3.53;;
19213;SDS011;9741;51.020;5.304;2023-04-08T09:47:43;9.93;;;4.00;;
19213;SDS011;9741;51.020;5.304;2023-04-08T09:50:23;8.43;;;4.88;;
19213;SDS011;9741;51.020;5.304;2023-04-08T09:52:56;10.25;;;4.30;;
19213;SDS011;9741;51.020;5.304;2023-04-08T09:55:27;13.57;;;4.72;;
19213;SDS011;9741;51.020;5.304;2023-04-08T09:57:59;8.23;;;4.15;;
19213;SDS011;9741;51.020;5.304;2023-04-08T10:00:31;8.38;;;3.97;;
19213;SDS011;9741;51.020;5.304;2023-04-08T10:03:01;11.60;;;4.72;;
19213;SDS011;9741;51.020;5.304;2023-04-08T10:05:37;11.82;;;5.70;;
19213;SDS011;9741;51.020;5.304;2023-04-08T10:08:07;8.00;;;5.38;;
19213;SDS011;9741;51.020;5.304;2023-04-08T10:10:35;7.80;;;3.97;;
19213;SDS011;9741;51.020;5.304;2023-04-08T10:13:05;9.50;;;5.22;;
19213;SDS011;9741;51.020;5.304;2023-04-08T10:15:33;7.93;;;5.40;;
19213;SDS011;9741;51.020;5.304;2023-04-08T10:21:03;7.85;;;3.95;;
19213;SDS011;9741;51.020;5.304;2023-04-08T10:26:31;8.05;;;3.88;;
19213;SDS011;9741;51.020;5.304;2023-04-08T10:32:07;5.47;;;3.70;;
19213;SDS011;9741;51.020;5.304;2023-04-08T10:34:55;4.63;;;3.33;;
19213;SDS011;9741;51.020;5.304;2023-04-08T10:37:24;6.40;;;3.78;;
19213;SDS011;9741;51.020;5.304;2023-04-08T10:39:53;7.15;;;4.75;;
19213;SDS011;9741;51.020;5.304;2023-04-08T10:42:25;13.45;;;3.63;;
19213;SDS011;9741;51.020;5.304;2023-04-08T10:44:53;7.45;;;3.05;;
19213;SDS011;9741;51.020;5.304;2023-04-08T10:47:27;9.30;;;3.90;;
19213;SDS011;9741;51.020;5.304;2023-04-08T10:49:54;3.88;;;3.42;;
19213;SDS011;9741;51.020;5.304;2023-04-08T10:52:21;7.32;;;3.42;;
19213;SDS011;9741;51.020;5.304;2023-04-08T10:54:51;8.38;;;4.13;;
19213;SDS011;9741;51.020;5.304;2023-04-08T10:57:23;7.07;;;4.15;;
19213;SDS011;9741;51.020;5.304;2023-04-08T10:59:51;11.18;;;4.18;;
19213;SDS011;9741;51.020;5.304;2023-04-08T11:02:18;8.93;;;3.80;;
19213;SDS011;9741;51.020;5.304;2023-04-08T11:04:45;3.78;;;2.92;;
19213;SDS011;9741;51.020;5.304;2023-04-08T11:07:12;9.40;;;3.42;;
19213;SDS011;9741;51.020;5.304;2023-04-08T11:09:41;4.88;;;3.05;;
19213;SDS011;9741;51.020;5.304;2023-04-08T11:12:09;6.85;;;4.10;;
19213;SDS011;9741;51.020;5.304;2023-04-08T11:14:38;7.78;;;3.70;;
19213;SDS011;9741;51.020;5.304;2023-04-08T11:17:08;3.60;;;2.65;;
19213;SDS011;9741;51.020;5.304;2023-04-08T11:19:36;5.57;;;3.13;;
19213;SDS011;9741;51.020;5.304;2023-04-08T11:22:04;12.13;;;3.95;;
19213;SDS011;9741;51.020;5.304;2023-04-08T11:24:33;7.28;;;3.58;;
19213;SDS011;9741;51.020;5.304;2023-04-08T11:27:04;5.20;;;3.17;;
19213;SDS011;9741;51.020;5.304;2023-04-08T11:29:31;14.70;;;4.88;;
19213;SDS011;9741;51.020;5.304;2023-04-08T11:32:00;4.07;;;3.60;;
19213;SDS011;9741;51.020;5.304;2023-04-08T11:34:28;4.07;;;3.13;;
19213;SDS011;9741;51.020;5.304;2023-04-08T11:36:56;6.18;;;4.22;;
19213;SDS011;9741;51.020;5.304;2023-04-08T11:39:23;6.75;;;3.47;;
19213;SDS011;9741;51.020;5.304;2023-04-08T11:41:51;10.75;;;3.72;;
19213;SDS011;9741;51.020;5.304;2023-04-08T11:44:20;6.63;;;3.35;;
19213;SDS011;9741;51.020;5.304;2023-04-08T11:46:58;10.00;;;4.50;;
19213;SDS011;9741;51.020;5.304;2023-04-08T11:49:27;6.10;;;3.97;;
19213;SDS011;9741;51.020;5.304;2023-04-08T11:52:09;5.85;;;3.08;;
19213;SDS011;9741;51.020;5.304;2023-04-08T11:54:39;7.30;;;3.40;;
19213;SDS011;9741;51.020;5.304;2023-04-08T11:57:09;10.43;;;4.25;;
19213;SDS011;9741;51.020;5.304;2023-04-08T11:59:41;7.97;;;3.78;;
19213;SDS011;9741;51.020;5.304;2023-04-08T12:02:08;10.32;;;4.45;;
19213;SDS011;9741;51.020;5.304;2023-04-08T12:04:37;7.60;;;3.15;;
19213;SDS011;9741;51.020;5.304;2023-04-08T12:07:06;4.18;;;3.40;;
19213;SDS011;9741;51.020;5.304;2023-04-08T12:09:36;3.60;;;2.67;;
19213;SDS011;9741;51.020;5.304;2023-04-08T12:12:04;6.40;;;4.63;;
19213;SDS011;9741;51.020;5.304;2023-04-08T12:14:32;5.13;;;3.70;;
19213;SDS011;9741;51.020;5.304;2023-04-08T12:17:00;8.68;;;3.42;;
19213;SDS011;9741;51.020;5.304;2023-04-08T12:19:30;5.40;;;3.20;;
19213;SDS011;9741;51.020;5.304;2023-04-08T12:22:00;6.93;;;3.25;;
19213;SDS011;9741;51.020;5.304;2023-04-08T12:24:30;10.38;;;3.28;;
19213;SDS011;9741;51.020;5.304;2023-04-08T12:26:57;4.47;;;2.80;;
19213;SDS011;9741;51.020;5.304;2023-04-08T12:29:26;7.63;;;3.42;;
19213;SDS011;9741;51.020;5.304;2023-04-08T12:31:53;8.90;;;4.18;;
19213;SDS011;9741;51.020;5.304;2023-04-08T12:34:25;6.53;;;3.72;;
19213;SDS011;9741;51.020;5.304;2023-04-08T12:36:54;11.25;;;3.85;;
19213;SDS011;9741;51.020;5.304;2023-04-08T12:39:24;3.63;;;3.03;;
19213;SDS011;9741;51.020;5.304;2023-04-08T12:41:51;4.07;;;2.80;;
19213;SDS011;9741;51.020;5.304;2023-04-08T12:44:19;8.35;;;3.47;;
19213;SDS011;9741;51.020;5.304;2023-04-08T12:46:47;4.13;;;3.08;;
19213;SDS011;9741;51.020;5.304;2023-04-08T12:49:16;5.32;;;2.83;;
19213;SDS011;9741;51.020;5.304;2023-04-08T12:51:49;6.65;;;3.47;;
19213;SDS011;9741;51.020;5.304;2023-04-08T12:54:16;4.07;;;2.58;;
19213;SDS011;9741;51.020;5.304;2023-04-08T12:56:43;6.30;;;2.80;;
19213;SDS011;9741;51.020;5.304;2023-04-08T12:59:13;4.05;;;2.65;;
19213;SDS011;9741;51.020;5.304;2023-04-08T13:01:41;4.50;;;2.58;;
19213;SDS011;9741;51.020;5.304;2023-04-08T13:04:08;3.97;;;3.25;;
19213;SDS011;9741;51.020;5.304;2023-04-08T13:06:35;5.85;;;3.22;;
19213;SDS011;9741;51.020;5.304;2023-04-08T13:09:04;3.03;;;1.83;;
19213;SDS011;9741;51.020;5.304;2023-04-08T13:11:31;5.97;;;3.55;;
19213;SDS011;9741;51.020;5.304;2023-04-08T13:13:59;3.45;;;2.92;;
19213;SDS011;9741;51.020;5.304;2023-04-08T13:16:26;4.53;;;3.45;;
19213;SDS011;9741;51.020;5.304;2023-04-08T13:18:56;3.90;;;2.30;;
19213;SDS011;9741;51.020;5.304;2023-04-08T13:21:24;3.17;;;2.58;;
19213;SDS011;9741;51.020;5.304;2023-04-08T13:23:53;3.35;;;1.75;;
19213;SDS011;9741;51.020;5.304;2023-04-08T13:26:21;2.45;;;2.20;;
19213;SDS011;9741;51.020;5.304;2023-04-08T13:28:49;2.75;;;1.80;;
19213;SDS011;9741;51.020;5.304;2023-04-08T13:31:16;7.82;;;2.67;;
19213;SDS011;9741;51.020;5.304;2023-04-08T13:33:45;7.00;;;3.58;;
19213;SDS011;9741;51.020;5.304;2023-04-08T13:36:14;2.78;;;2.58;;
19213;SDS011;9741;51.020;5.304;2023-04-08T13:38:42;2.08;;;1.88;;
19213;SDS011;9741;51.020;5.304;2023-04-08T13:41:10;6.38;;;3.15;;
19213;SDS011;9741;51.020;5.304;2023-04-08T13:43:38;8.40;;;3.55;;
19213;SDS011;9741;51.020;5.304;2023-04-08T13:46:06;4.63;;;2.28;;
19213;SDS011;9741;51.020;5.304;2023-04-08T13:48:33;2.40;;;2.00;;
19213;SDS011;9741;51.020;5.304;2023-04-08T13:51:01;9.13;;;3.20;;
19213;SDS011;9741;51.020;5.304;2023-04-08T13:53:28;4.72;;;2.72;;
19213;SDS011;9741;51.020;5.304;2023-04-08T13:55:55;4.32;;;3.03;;
19213;SDS011;9741;51.020;5.304;2023-04-08T13:58:23;5.35;;;3.53;;
19213;SDS011;9741;51.020;5.304;2023-04-08T14:00:52;4.32;;;2.85;;
19213;SDS011;9741;51.020;5.304;2023-04-08T14:03:20;4.07;;;2.80;;
19213;SDS011;9741;51.020;5.304;2023-04-08T14:05:47;4.97;;;3.38;;
19213;SDS011;9741;51.020;5.304;2023-04-08T14:08:15;5.40;;;3.25;;
19213;SDS011;9741;51.020;5.304;2023-04-08T14:10:48;2.30;;;1.75;;
19213;SDS011;9741;51.020;5.304;2023-04-08T14:13:16;7.93;;;2.55;;
19213;SDS011;9741;51.020;5.304;2023-04-08T14:15:43;5.18;;;3.17;;
19213;SDS011;9741;51.020;5.304;2023-04-08T14:18:12;6.53;;;3.80;;
19213;SDS011;9741;51.020;5.304;2023-04-08T14:20:41;9.48;;;2.90;;
19213;SDS011;9741;51.020;5.304;2023-04-08T14:23:08;3.95;;;2.75;;
19213;SDS011;9741;51.020;5.304;2023-04-08T14:25:37;11.95;;;3.13;;
19213;SDS011;9741;51.020;5.304;2023-04-08T14:28:05;4.15;;;2.65;;
19213;SDS011;9741;51.020;5.304;2023-04-08T14:30:33;3.45;;;1.85;;
19213;SDS011;9741;51.020;5.304;2023-04-08T14:33:01;4.63;;;2.47;;
19213;SDS011;9741;51.020;5.304;2023-04-08T14:35:30;2.45;;;2.25;;
19213;SDS011;9741;51.020;5.304;2023-04-08T14:37:57;4.60;;;2.80;;
19213;SDS011;9741;51.020;5.304;2023-04-08T14:40:27;5.40;;;3.00;;
19213;SDS011;9741;51.020;5.304;2023-04-08T14:42:54;4.85;;;2.75;;
19213;SDS011;9741;51.020;5.304;2023-04-08T14:45:21;3.50;;;2.38;;
19213;SDS011;9741;51.020;5.304;2023-04-08T14:47:48;4.75;;;2.72;;
19213;SDS011;9741;51.020;5.304;2023-04-08T14:50:15;6.28;;;2.95;;
19213;SDS011;9741;51.020;5.304;2023-04-08T14:52:45;4.60;;;3.20;;
19213;SDS011;9741;51.020;5.304;2023-04-08T14:55:14;4.78;;;2.40;;
19213;SDS011;9741;51.020;5.304;2023-04-08T14:57:41;2.72;;;2.28;;
19213;SDS011;9741;51.020;5.304;2023-04-08T15:00:08;4.88;;;3.00;;
19213;SDS011;9741;51.020;5.304;2023-04-08T15:02:36;3.80;;;2.15;;
19213;SDS011;9741;51.020;5.304;2023-04-08T15:05:03;4.20;;;2.17;;
19213;SDS011;9741;51.020;5.304;2023-04-08T15:07:31;3.70;;;2.70;;
19213;SDS011;9741;51.020;5.304;2023-04-08T15:10:00;6.43;;;2.60;;
19213;SDS011;9741;51.020;5.304;2023-04-08T15:12:27;10.43;;;3.88;;
19213;SDS011;9741;51.020;5.304;2023-04-08T15:14:59;6.10;;;2.47;;
19213;SDS011;9741;51.020;5.304;2023-04-08T15:17:26;3.92;;;2.53;;